Time;durP1;ratioP1;P1;durP2;ratioP2;P2;SDS_P1;SDS_P2;PMS_P1;PMS_P2;Temp;Humidity;BMP_temperature;BMP_pressure;BME280_temperature;BME280_humidity;BME280_pressure;Samples;Min_cycle;Max_cycle;Signal;HPM_P1;HPM_P2
2023/05/30 00:01:07;;;;;;;8.07;4.10;;;18.20;59.40;;;;;;5048479;28;20466;-72
2023/05/30 00:03:52;;;;;;;11.00;4.13;;;18.20;58.70;;;;;;5044138;28;20607;-71
2023/05/30 00:06:38;;;;;;;8.33;3.70;;;18.20;58.50;;;;;;5045821;28;20452;-71
2023/05/30 00:09:23;;;;;;;6.53;3.50;;;18.10;59.10;;;;;;5049250;28;20811;-71
2023/05/30 00:12:11;;;;;;;6.93;2.97;;;18.00;60.00;;;;;;5051981;28;20443;-72
2023/05/30 00:14:59;;;;;;;7.87;3.83;;;18.10;59.50;;;;;;5045675;28;20436;-72
2023/05/30 00:17:45;;;;;;;8.27;3.63;;;18.10;59.20;;;;;;5049614;28;20563;-71
2023/05/30 00:20:30;;;;;;;12.60;4.10;;;18.10;59.90;;;;;;5050682;28;20466;-72
2023/05/30 00:23:16;;;;;;;8.27;3.97;;;18.10;59.60;;;;;;5047088;28;20797;-72
2023/05/30 00:26:03;;;;;;;6.20;3.73;;;18.00;60.10;;;;;;5046491;28;20449;-71
2023/05/30 00:28:49;;;;;;;16.60;5.10;;;18.00;60.10;;;;;;5057303;28;20493;-72
2023/05/30 00:31:34;;;;;;;10.37;4.00;;;18.00;60.00;;;;;;5045702;28;20438;-71
2023/05/30 00:34:20;;;;;;;12.10;3.70;;;18.00;60.00;;;;;;5050002;28;20459;-71
2023/05/30 00:37:08;;;;;;;7.50;3.70;;;18.00;60.30;;;;;;5047286;28;20471;-72
2023/05/30 00:39:54;;;;;;;9.63;4.40;;;18.00;59.70;;;;;;5049462;28;20470;-72
2023/05/30 00:42:39;;;;;;;8.07;4.27;;;18.10;59.20;;;;;;5046830;28;20443;-71
2023/05/30 00:45:26;;;;;;;8.63;4.33;;;18.10;59.00;;;;;;5043402;28;20456;-71
2023/05/30 00:48:12;;;;;;;13.50;3.90;;;18.10;59.30;;;;;;5045289;28;20455;-71
2023/05/30 00:50:58;;;;;;;8.57;4.60;;;18.10;59.60;;;;;;5047791;28;20505;-71
2023/05/30 00:53:44;;;;;;;14.30;3.70;;;18.10;59.20;;;;;;5045874;28;20448;-73
2023/05/30 00:56:31;;;;;;;9.87;3.90;;;18.10;59.60;;;;;;5038329;28;20626;-71
2023/05/30 00:59:16;;;;;;;10.03;4.50;;;18.10;59.10;;;;;;5050153;28;20495;-72
2023/05/30 01:02:04;;;;;;;7.20;4.70;;;18.00;58.90;;;;;;5046175;28;20530;-71
2023/05/30 01:04:49;;;;;;;12.13;4.50;;;18.00;59.40;;;;;;5045141;28;20658;-72
2023/05/30 01:07:35;;;;;;;11.43;3.93;;;18.00;59.20;;;;;;5055763;28;20443;-72
2023/05/30 01:10:21;;;;;;;6.80;3.80;;;18.10;59.10;;;;;;5055121;28;20466;-72
2023/05/30 01:13:15;;;;;;;7.13;3.47;;;18.00;58.90;;;;;;5046728;28;20434;-71
2023/05/30 01:16:05;;;;;;;9.53;4.03;;;17.90;58.80;;;;;;5047682;28;20997;-71
2023/05/30 01:18:59;;;;;;;9.10;3.57;;;17.90;59.10;;;;;;5051812;28;21023;-71
2023/05/30 01:21:45;;;;;;;10.83;4.87;;;17.90;59.00;;;;;;5055141;28;22577;-71
2023/05/30 01:24:42;;;;;;;13.23;4.63;;;18.00;58.60;;;;;;5042337;28;20806;-72
2023/05/30 01:27:40;;;;;;;7.00;4.10;;;17.90;58.90;;;;;;5047051;28;20447;-72
2023/05/30 01:30:30;;;;;;;8.03;4.13;;;17.80;59.70;;;;;;5051189;28;20590;-72
2023/05/30 01:33:19;;;;;;;7.37;3.60;;;17.80;59.60;;;;;;5044643;28;20448;-71
2023/05/30 01:36:05;;;;;;;8.70;4.73;;;17.80;60.20;;;;;;5038003;28;20450;-71
2023/05/30 01:38:50;;;;;;;10.60;4.57;;;17.80;59.60;;;;;;5047092;28;20443;-71
2023/05/30 01:41:46;;;;;;;7.87;3.53;;;17.70;60.00;;;;;;5046958;28;20545;-72
2023/05/30 01:44:37;;;;;;;15.53;4.50;;;17.60;59.60;;;;;;5042754;28;20448;-71
2023/05/30 01:47:29;;;;;;;8.50;4.00;;;17.60;59.40;;;;;;5047678;28;20959;-71
2023/05/30 01:50:17;;;;;;;9.47;4.30;;;17.60;58.60;;;;;;5042256;28;20470;-72
2023/05/30 01:53:05;;;;;;;6.23;3.37;;;17.60;58.80;;;;;;5047441;28;20482;-72
2023/05/30 01:55:55;;;;;;;10.40;4.10;;;17.60;59.10;;;;;;5043690;28;20828;-72
2023/05/30 01:58:41;;;;;;;11.07;4.00;;;17.50;58.80;;;;;;5050638;28;20541;-72
2023/05/30 02:01:29;;;;;;;9.67;4.63;;;17.50;59.10;;;;;;5051641;28;20471;-72
2023/05/30 02:04:16;;;;;;;13.50;5.83;;;17.40;59.60;;;;;;5039702;28;20441;-72
2023/05/30 02:07:02;;;;;;;7.47;3.20;;;17.30;59.50;;;;;;5048088;28;20413;-71
2023/05/30 02:09:47;;;;;;;10.10;3.80;;;17.20;60.30;;;;;;5055494;28;20440;-71
2023/05/30 02:12:33;;;;;;;9.73;3.60;;;17.20;60.20;;;;;;5046044;28;20467;-71
2023/05/30 02:15:18;;;;;;;12.30;4.33;;;17.20;59.70;;;;;;5043292;28;20447;-71
2023/05/30 02:18:06;;;;;;;7.77;3.63;;;17.30;59.50;;;;;;5044035;28;20808;-71
2023/05/30 02:20:53;;;;;;;9.13;4.10;;;17.20;60.10;;;;;;5047792;28;21027;-72
2023/05/30 02:23:38;;;;;;;10.30;4.13;;;17.10;60.40;;;;;;5041047;28;20489;-72
2023/05/30 02:26:24;;;;;;;10.23;3.50;;;17.10;60.50;;;;;;5046178;28;20413;-71
2023/05/30 02:29:10;;;;;;;9.13;3.80;;;17.00;60.70;;;;;;5043848;28;20446;-71
2023/05/30 02:31:55;;;;;;;7.93;3.17;;;17.00;60.30;;;;;;5046250;28;20478;-72
2023/05/30 02:34:40;;;;;;;9.50;3.90;;;16.90;60.00;;;;;;5041242;28;20439;-72
2023/05/30 02:37:27;;;;;;;9.37;4.50;;;16.90;60.10;;;;;;5043505;28;20448;-72
2023/05/30 02:40:13;;;;;;;8.43;3.93;;;16.80;59.80;;;;;;5047280;28;20991;-72
2023/05/30 02:42:59;;;;;;;9.00;4.27;;;16.80;59.10;;;;;;5039274;28;20483;-73
2023/05/30 02:45:44;;;;;;;9.30;3.83;;;16.80;58.20;;;;;;5045580;28;20426;-73
2023/05/30 02:48:30;;;;;;;10.00;4.67;;;16.70;57.50;;;;;;5047678;28;20549;-72
2023/05/30 02:51:15;;;;;;;7.10;3.00;;;16.60;57.60;;;;;;5049160;28;20463;-72
2023/05/30 02:54:02;;;;;;;9.60;3.33;;;16.50;57.90;;;;;;5046974;28;20422;-73
2023/05/30 02:56:47;;;;;;;7.00;3.20;;;16.50;58.00;;;;;;5049108;28;20471;-72
2023/05/30 02:59:33;;;;;;;6.63;3.50;;;16.40;57.50;;;;;;5045681;28;20617;-72
2023/05/30 03:02:19;;;;;;;8.00;4.40;;;16.40;57.30;;;;;;5049333;28;21032;-72
2023/05/30 03:05:05;;;;;;;12.10;3.60;;;16.40;56.90;;;;;;5050116;28;21621;-73
2023/05/30 03:07:51;;;;;;;8.17;3.27;;;16.30;57.10;;;;;;5054414;28;20486;-72
2023/05/30 03:10:38;;;;;;;10.07;3.50;;;16.20;57.10;;;;;;5052653;28;20987;-72
2023/05/30 03:13:23;;;;;;;6.17;2.90;;;16.20;56.90;;;;;;5042823;28;20964;-72
2023/05/30 03:16:09;;;;;;;8.83;3.70;;;16.10;57.00;;;;;;5048954;28;20467;-73
2023/05/30 03:18:55;;;;;;;8.50;3.10;;;16.20;56.10;;;;;;5050900;28;20521;-72
2023/05/30 03:21:42;;;;;;;11.60;4.00;;;16.20;55.40;;;;;;5053074;28;20482;-73
2023/05/30 03:24:29;;;;;;;11.67;3.60;;;16.10;55.90;;;;;;5047626;28;21379;-72
2023/05/30 03:27:15;;;;;;;9.10;3.90;;;16.00;55.50;;;;;;5050468;28;20811;-71
2023/05/30 03:30:02;;;;;;;9.17;3.90;;;16.00;54.50;;;;;;5053495;28;20466;-70
2023/05/30 03:32:48;;;;;;;10.53;3.93;;;16.00;54.90;;;;;;5047423;28;20879;-72
2023/05/30 03:35:33;;;;;;;9.10;4.40;;;16.00;54.30;;;;;;5051420;28;20433;-71
2023/05/30 03:38:19;;;;;;;7.43;3.70;;;16.00;53.80;;;;;;5050427;28;20905;-71
2023/05/30 03:41:04;;;;;;;10.40;3.13;;;15.80;54.70;;;;;;5054208;28;20503;-72
2023/05/30 03:43:51;;;;;;;9.70;3.70;;;15.80;55.00;;;;;;5046043;28;20443;-71
2023/05/30 03:46:37;;;;;;;10.37;4.17;;;15.80;54.20;;;;;;5048547;28;20883;-71
2023/05/30 03:49:22;;;;;;;7.50;3.13;;;15.90;53.40;;;;;;5051630;28;20958;-73
2023/05/30 03:52:08;;;;;;;6.13;3.20;;;15.80;53.80;;;;;;5042191;28;20451;-72
2023/05/30 03:54:54;;;;;;;6.73;3.07;;;15.80;54.00;;;;;;5045997;28;21060;-71
2023/05/30 03:57:39;;;;;;;8.07;3.37;;;15.70;54.30;;;;;;5052469;28;20838;-72
2023/05/30 04:00:26;;;;;;;8.93;3.20;;;15.70;54.70;;;;;;5045078;28;20446;-73
2023/05/30 04:03:12;;;;;;;7.87;3.27;;;15.70;54.50;;;;;;5040605;28;20906;-71
2023/05/30 04:05:58;;;;;;;8.73;3.03;;;15.70;53.80;;;;;;5050872;28;20449;-72
2023/05/30 04:08:43;;;;;;;9.10;3.90;;;15.80;53.50;;;;;;5048564;28;20821;-71
2023/05/30 04:11:29;;;;;;;10.87;3.70;;;15.70;53.30;;;;;;5047699;28;20489;-74
2023/05/30 04:14:14;;;;;;;12.50;3.40;;;15.60;53.90;;;;;;5047587;28;20507;-71
2023/05/30 04:17:01;;;;;;;6.77;3.17;;;15.60;53.10;;;;;;5047444;28;20475;-72
2023/05/30 04:19:47;;;;;;;6.83;2.80;;;15.70;53.70;;;;;;5044391;28;20999;-71
2023/05/30 04:22:33;;;;;;;8.70;3.40;;;15.70;53.20;;;;;;5047102;28;20422;-71
2023/05/30 04:25:18;;;;;;;9.97;3.90;;;15.80;52.90;;;;;;5050645;28;20416;-74
2023/05/30 04:28:05;;;;;;;11.53;3.67;;;15.70;52.10;;;;;;5045032;28;20577;-73
2023/05/30 04:30:54;;;;;;;9.27;4.63;;;15.80;52.20;;;;;;5047129;28;20470;-71
2023/05/30 04:33:45;;;;;;;7.20;2.90;;;15.80;51.60;;;;;;5041789;28;20939;-71
2023/05/30 04:36:36;;;;;;;8.70;2.90;;;15.80;51.80;;;;;;5045405;28;20987;-72
2023/05/30 04:39:22;;;;;;;15.70;3.17;;;15.80;52.70;;;;;;5045351;28;20450;-72
2023/05/30 04:42:08;;;;;;;11.33;3.87;;;15.80;52.20;;;;;;5042845;28;20443;-72
2023/05/30 04:44:54;;;;;;;7.13;3.37;;;15.80;51.20;;;;;;5046691;28;20446;-74
2023/05/30 04:47:39;;;;;;;7.10;3.10;;;15.80;51.40;;;;;;5045995;28;20432;-72
2023/05/30 04:50:26;;;;;;;8.20;3.00;;;15.90;51.40;;;;;;5044615;28;20444;-72
2023/05/30 04:53:11;;;;;;;11.97;2.80;;;15.90;50.60;;;;;;5048817;28;20540;-71
2023/05/30 04:55:57;;;;;;;6.23;2.90;;;15.80;52.60;;;;;;5054869;28;20953;-73
2023/05/30 04:58:44;;;;;;;7.60;3.23;;;15.70;52.10;;;;;;5047490;28;20494;-72
2023/05/30 05:01:29;;;;;;;10.17;3.10;;;15.70;51.00;;;;;;5041262;28;20979;-72
2023/05/30 05:04:15;;;;;;;11.27;3.80;;;15.70;51.90;;;;;;5044456;28;20418;-72
2023/05/30 05:07:02;;;;;;;8.57;4.10;;;15.70;53.10;;;;;;5045735;28;20410;-72
2023/05/30 05:09:47;;;;;;;12.97;3.23;;;15.80;51.00;;;;;;5050152;28;20432;-72
2023/05/30 05:12:33;;;;;;;14.30;3.57;;;15.90;51.40;;;;;;5045420;28;20519;-74
2023/05/30 05:15:18;;;;;;;10.93;3.23;;;15.90;52.30;;;;;;5050421;28;20808;-72
2023/05/30 05:18:04;;;;;;;8.13;3.00;;;16.00;51.00;;;;;;5047605;28;20603;-71
2023/05/30 05:20:50;;;;;;;11.20;3.40;;;16.10;50.90;;;;;;5046559;28;20564;-74
2023/05/30 05:23:37;;;;;;;7.73;3.40;;;16.10;51.00;;;;;;5046972;28;20414;-72
2023/05/30 05:26:23;;;;;;;9.63;3.07;;;16.10;50.40;;;;;;5050579;28;20444;-71
2023/05/30 05:29:09;;;;;;;14.73;3.90;;;16.20;49.30;;;;;;5050020;28;20421;-72
2023/05/30 05:31:54;;;;;;;10.40;2.80;;;16.20;49.30;;;;;;5039394;28;20473;-73
2023/05/30 05:34:40;;;;;;;10.40;3.63;;;16.20;49.30;;;;;;5051867;28;20455;-71
2023/05/30 05:37:25;;;;;;;19.60;4.20;;;16.20;49.30;;;;;;5047849;28;20453;-71
2023/05/30 05:40:13;;;;;;;11.63;4.13;;;16.00;49.00;;;;;;5053366;28;20467;-73
2023/05/30 05:42:58;;;;;;;12.43;3.23;;;16.00;50.20;;;;;;5047974;28;20439;-72
2023/05/30 05:45:43;;;;;;;7.53;3.13;;;16.00;49.00;;;;;;5054829;28;20451;-72
2023/05/30 05:48:29;;;;;;;7.50;3.20;;;16.00;49.00;;;;;;5044559;28;20918;-72
2023/05/30 05:51:14;;;;;;;13.63;3.30;;;16.10;49.10;;;;;;5038010;28;20995;-71
2023/05/30 05:54:00;;;;;;;13.30;3.17;;;16.20;49.90;;;;;;5048703;28;21621;-71
2023/05/30 05:56:47;;;;;;;8.50;3.10;;;16.20;49.80;;;;;;5050782;28;20852;-74
2023/05/30 05:59:32;;;;;;;10.93;3.30;;;16.30;50.00;;;;;;5048904;28;20424;-72
2023/05/30 06:02:17;;;;;;;15.87;3.93;;;16.30;49.40;;;;;;5044433;28;20552;-72
2023/05/30 06:05:03;;;;;;;12.97;3.20;;;16.40;50.10;;;;;;5049310;28;20454;-71
2023/05/30 06:07:49;;;;;;;13.03;4.03;;;16.40;50.20;;;;;;5053358;28;20949;-73
2023/05/30 06:10:34;;;;;;;8.73;3.90;;;16.50;50.70;;;;;;5046389;28;21010;-73
2023/05/30 06:13:21;;;;;;;9.43;3.20;;;16.50;49.70;;;;;;5050016;28;20534;-73
2023/05/30 06:16:07;;;;;;;9.70;2.87;;;16.60;49.70;;;;;;5048760;28;20502;-71
2023/05/30 06:18:52;;;;;;;18.77;4.77;;;16.60;49.40;;;;;;5053230;28;20792;-72
2023/05/30 06:21:37;;;;;;;12.23;3.37;;;16.60;50.20;;;;;;5042087;28;20479;-74
2023/05/30 06:24:23;;;;;;;11.77;3.30;;;16.80;48.70;;;;;;5046557;28;20463;-71
2023/05/30 06:27:08;;;;;;;11.43;3.00;;;16.80;48.30;;;;;;5050953;28;20518;-71
2023/05/30 06:29:55;;;;;;;11.17;3.40;;;16.90;48.80;;;;;;5058803;28;20470;-71
2023/05/30 06:32:41;;;;;;;6.47;2.73;;;16.90;48.90;;;;;;5050083;28;20450;-71
2023/05/30 06:35:26;;;;;;;7.47;3.40;;;17.00;47.50;;;;;;5058303;28;20428;-72
2023/05/30 06:38:11;;;;;;;6.03;2.50;;;17.00;48.20;;;;;;5047603;28;20470;-72
2023/05/30 06:40:57;;;;;;;11.57;3.83;;;17.00;48.60;;;;;;5050280;28;20466;-72
2023/05/30 06:43:42;;;;;;;7.90;2.90;;;17.10;46.70;;;;;;5056144;28;20489;-71
2023/05/30 06:46:29;;;;;;;8.37;3.40;;;17.20;46.20;;;;;;5054286;28;20509;-71
2023/05/30 06:49:14;;;;;;;10.00;3.93;;;17.20;47.40;;;;;;5056469;28;20480;-71
2023/05/30 06:52:00;;;;;;;15.20;3.50;;;17.20;47.20;;;;;;5049379;28;20824;-71
2023/05/30 06:54:47;;;;;;;14.60;3.63;;;17.10;48.40;;;;;;5053254;28;20454;-72
2023/05/30 06:57:32;;;;;;;16.37;3.60;;;17.00;48.30;;;;;;5051581;28;20605;-71
2023/05/30 07:00:19;;;;;;;11.53;3.20;;;17.10;50.20;;;;;;5050017;28;20587;-71
2023/05/30 07:03:05;;;;;;;10.93;3.03;;;17.30;51.30;;;;;;5057126;28;20450;-72
2023/05/30 07:05:51;;;;;;;6.70;3.10;;;17.50;50.60;;;;;;5053529;28;20475;-71
2023/05/30 07:08:36;;;;;;;9.97;2.93;;;17.70;49.80;;;;;;5056681;28;20463;-71
2023/05/30 07:11:22;;;;;;;9.70;3.43;;;17.90;48.00;;;;;;5047206;28;21015;-72
2023/05/30 07:14:08;;;;;;;18.33;4.43;;;17.90;47.30;;;;;;5063768;28;20914;-73
2023/05/30 07:16:53;;;;;;;10.40;3.57;;;18.00;46.70;;;;;;5055395;28;20417;-72
2023/05/30 07:19:40;;;;;;;13.67;2.93;;;18.00;47.00;;;;;;5046506;28;20534;-74
2023/05/30 07:22:26;;;;;;;8.90;3.37;;;18.10;47.00;;;;;;5048084;28;20533;-71
2023/05/30 07:25:11;;;;;;;22.30;4.70;;;18.20;45.50;;;;;;5046602;28;20541;-72
2023/05/30 07:27:57;;;;;;;13.70;3.23;;;18.40;45.80;;;;;;5046381;28;20595;-72
2023/05/30 07:30:42;;;;;;;7.87;3.10;;;18.50;44.90;;;;;;5043966;28;21195;-73
2023/05/30 07:33:28;;;;;;;9.00;3.00;;;18.60;44.40;;;;;;5053176;28;20451;-71
2023/05/30 07:36:15;;;;;;;9.40;3.67;;;18.70;43.90;;;;;;5047188;28;20449;-71
2023/05/30 07:39:01;;;;;;;9.30;2.83;;;18.70;43.50;;;;;;5042689;28;20992;-71
2023/05/30 07:41:46;;;;;;;8.00;3.13;;;18.80;41.80;;;;;;5046086;28;20527;-71
2023/05/30 07:44:32;;;;;;;7.40;2.70;;;18.90;43.00;;;;;;5051317;28;20456;-73
2023/05/30 07:47:17;;;;;;;9.50;3.80;;;18.90;42.40;;;;;;5051334;28;20411;-72
2023/05/30 07:50:04;;;;;;;9.80;3.20;;;19.00;43.50;;;;;;5041163;28;20551;-73
2023/05/30 07:52:50;;;;;;;8.93;3.30;;;19.10;43.30;;;;;;5055626;28;20446;-71
2023/05/30 07:55:36;;;;;;;11.57;3.10;;;19.20;43.60;;;;;;5048139;28;20781;-72
2023/05/30 07:58:22;;;;;;;7.70;3.10;;;19.40;43.20;;;;;;5048985;28;20602;-73
2023/05/30 08:01:07;;;;;;;7.97;2.93;;;19.50;39.60;;;;;;5045516;28;20464;-73
2023/05/30 08:03:53;;;;;;;10.97;3.70;;;19.60;39.10;;;;;;5047710;28;21455;-72
2023/05/30 08:06:39;;;;;;;8.70;3.17;;;19.70;39.30;;;;;;5044036;28;20451;-72
2023/05/30 08:09:25;;;;;;;11.33;3.17;;;19.80;39.30;;;;;;5044259;28;20444;-75
2023/05/30 08:12:17;;;;;;;7.87;3.10;;;19.90;39.50;;;;;;5048810;28;20467;-71
2023/05/30 08:15:03;;;;;;;16.13;3.30;;;20.00;39.60;;;;;;5053406;28;20455;-72
2023/05/30 08:17:49;;;;;;;9.07;3.00;;;19.90;38.80;;;;;;5056337;28;20475;-72
2023/05/30 08:20:35;;;;;;;10.03;2.63;;;20.00;37.20;;;;;;5042446;28;20573;-71
2023/05/30 08:23:21;;;;;;;6.37;2.97;;;20.00;37.50;;;;;;5045939;28;20460;-72
2023/05/30 08:26:08;;;;;;;8.20;3.40;;;20.10;39.70;;;;;;5048014;28;20448;-75
2023/05/30 08:28:54;;;;;;;5.53;2.37;;;20.10;37.00;;;;;;5047923;28;20452;-71
2023/05/30 08:31:39;;;;;;;13.63;3.13;;;20.10;36.40;;;;;;5047359;28;21047;-71
2023/05/30 08:34:25;;;;;;;15.03;3.30;;;20.20;39.30;;;;;;5053973;28;20825;-72
2023/05/30 08:37:10;;;;;;;14.53;3.47;;;20.30;38.20;;;;;;5051572;28;20444;-72
2023/05/30 08:39:56;;;;;;;8.60;3.13;;;20.40;37.20;;;;;;5039672;28;20459;-71
2023/05/30 08:42:43;;;;;;;12.37;3.30;;;20.50;35.30;;;;;;5050237;28;20586;-72
2023/05/30 08:45:28;;;;;;;8.13;3.47;;;20.60;34.10;;;;;;5046856;28;20816;-71
2023/05/30 08:48:17;;;;;;;12.47;3.53;;;20.70;35.50;;;;;;5045950;28;20448;-72
2023/05/30 08:51:06;;;;;;;8.87;3.10;;;20.70;32.40;;;;;;5047027;28;20467;-73
2023/05/30 08:53:56;;;;;;;13.00;4.60;;;20.80;33.40;;;;;;5056635;28;20521;-73
2023/05/30 08:56:47;;;;;;;12.40;3.83;;;20.80;32.90;;;;;;5054964;28;20819;-73
2023/05/30 08:59:34;;;;;;;8.43;3.33;;;20.90;33.00;;;;;;5039747;28;20468;-73
2023/05/30 09:02:20;;;;;;;7.87;3.23;;;20.90;33.80;;;;;;5045089;28;20824;-72
2023/05/30 09:05:06;;;;;;;9.73;3.43;;;21.00;33.40;;;;;;5049889;28;20456;-72
2023/05/30 09:07:53;;;;;;;17.10;3.07;;;21.00;32.60;;;;;;5046043;28;20464;-74
2023/05/30 09:10:41;;;;;;;10.97;3.30;;;21.10;31.20;;;;;;5036420;28;20515;-72
2023/05/30 09:13:26;;;;;;;7.53;3.03;;;21.20;31.90;;;;;;5052796;28;20471;-73
2023/05/30 09:16:13;;;;;;;8.93;3.97;;;21.30;31.30;;;;;;5053528;28;20659;-71
2023/05/30 09:19:00;;;;;;;10.80;3.27;;;21.30;30.50;;;;;;5042161;28;20486;-72
2023/05/30 09:21:46;;;;;;;11.43;3.33;;;21.30;29.70;;;;;;5051896;28;20491;-71
2023/05/30 09:24:58;;;;;;;5.63;2.70;;;21.40;30.90;;;;;;5045387;28;20439;-72
2023/05/30 09:27:47;;;;;;;7.57;3.33;;;21.40;29.60;;;;;;5045546;28;20431;-73
2023/05/30 09:30:32;;;;;;;6.40;3.00;;;21.40;29.20;;;;;;5048539;28;20476;-73
2023/05/30 09:33:19;;;;;;;11.13;3.10;;;21.50;28.40;;;;;;5053036;28;20459;-71
2023/05/30 09:36:05;;;;;;;11.60;3.33;;;21.50;28.70;;;;;;5047044;28;20455;-73
2023/05/30 09:38:56;;;;;;;11.70;3.20;;;21.60;27.70;;;;;;5043783;28;20484;-72
2023/05/30 09:41:45;;;;;;;7.80;3.40;;;21.60;27.70;;;;;;5051127;28;20840;-73
2023/05/30 09:44:31;;;;;;;5.60;3.13;;;21.60;27.80;;;;;;5043100;28;20447;-71
2023/05/30 09:47:16;;;;;;;12.20;3.63;;;21.50;30.50;;;;;;5051643;28;20540;-73
2023/05/30 09:50:05;;;;;;;6.60;3.00;;;21.70;28.80;;;;;;5047094;28;20578;-72
2023/05/30 09:52:51;;;;;;;6.40;2.77;;;21.80;27.90;;;;;;5051900;28;20443;-72
2023/05/30 09:55:37;;;;;;;6.47;3.20;;;21.80;27.90;;;;;;5045154;28;20447;-73
2023/05/30 09:58:24;;;;;;;12.23;3.47;;;21.90;27.60;;;;;;5038335;28;20527;-72
2023/05/30 10:01:16;;;;;;;8.47;3.50;;;21.90;26.80;;;;;;5050036;28;20534;-72
2023/05/30 10:04:02;;;;;;;6.10;2.77;;;22.00;26.60;;;;;;5058841;28;20567;-69
2023/05/30 10:06:51;;;;;;;9.83;3.50;;;22.10;25.40;;;;;;5053284;28;20414;-69
2023/05/30 10:09:36;;;;;;;10.80;3.60;;;22.30;26.50;;;;;;5050360;28;20999;-71
2023/05/30 10:12:23;;;;;;;8.20;3.07;;;22.40;26.80;;;;;;5061566;28;21020;-69
2023/05/30 10:15:09;;;;;;;8.00;3.17;;;22.40;24.60;;;;;;5053433;28;20825;-69
2023/05/30 10:17:59;;;;;;;12.97;4.00;;;22.40;25.60;;;;;;5049090;28;20453;-69
2023/05/30 10:20:47;;;;;;;13.80;3.83;;;22.40;24.50;;;;;;5056984;28;20540;-70
2023/05/30 10:23:34;;;;;;;5.93;2.70;;;22.50;23.40;;;;;;5060433;28;20498;-71
2023/05/30 10:26:21;;;;;;;12.27;2.83;;;22.50;23.30;;;;;;5047044;28;20498;-70
2023/05/30 10:29:09;;;;;;;7.80;3.27;;;22.50;24.20;;;;;;5048686;28;20440;-70
2023/05/30 10:31:55;;;;;;;12.80;4.70;;;22.60;25.70;;;;;;5048867;28;20558;-71
2023/05/30 10:34:48;;;;;;;13.43;3.00;;;22.70;23.70;;;;;;5049844;28;20818;-72
2023/05/30 10:37:36;;;;;;;10.83;3.30;;;22.80;23.20;;;;;;5046559;28;20517;-71
2023/05/30 10:40:34;;;;;;;10.23;3.73;;;22.90;22.50;;;;;;5046467;28;20967;-71
2023/05/30 10:43:41;;;;;;;7.83;3.40;;;23.00;21.60;;;;;;5053331;28;20438;-72
2023/05/30 10:46:37;;;;;;;7.67;2.73;;;23.10;22.00;;;;;;5052784;28;20463;-74
2023/05/30 10:49:25;;;;;;;11.07;3.03;;;23.10;21.40;;;;;;5052393;28;20447;-71
2023/05/30 10:52:11;;;;;;;6.60;2.70;;;23.10;19.80;;;;;;5051386;28;20459;-71
2023/05/30 10:54:56;;;;;;;7.30;3.57;;;23.10;20.00;;;;;;5053493;28;20819;-71
2023/05/30 10:57:44;;;;;;;7.00;3.33;;;23.10;19.60;;;;;;5045979;28;20459;-71
2023/05/30 11:00:31;;;;;;;5.63;2.80;;;23.20;20.30;;;;;;5048924;28;20530;-71
2023/05/30 11:03:36;;;;;;;10.40;3.10;;;23.20;19.50;;;;;;5054232;28;20926;-73
2023/05/30 11:06:21;;;;;;;8.83;3.20;;;23.30;20.20;;;;;;5051104;28;20459;-71
2023/05/30 11:09:08;;;;;;;11.67;3.20;;;23.40;19.50;;;;;;5053555;28;20438;-71
2023/05/30 11:11:56;;;;;;;8.37;3.03;;;23.40;20.30;;;;;;5054294;28;20467;-71
2023/05/30 11:14:55;;;;;;;8.83;2.90;;;23.50;18.80;;;;;;5053996;28;20460;-71
2023/05/30 11:17:40;;;;;;;7.90;2.73;;;23.60;17.90;;;;;;5045599;28;20435;-71
2023/05/30 11:20:26;;;;;;;6.90;3.30;;;23.50;17.80;;;;;;5048592;28;20446;-71
2023/05/30 11:23:19;;;;;;;9.10;2.97;;;23.50;17.80;;;;;;5050610;28;20446;-71
2023/05/30 11:26:04;;;;;;;10.33;3.40;;;23.50;17.20;;;;;;5047953;28;20439;-73
2023/05/30 11:28:52;;;;;;;7.60;3.27;;;23.50;19.30;;;;;;5048089;28;20534;-70
2023/05/30 11:31:41;;;;;;;8.70;3.30;;;23.60;17.90;;;;;;5050442;28;20607;-71
2023/05/30 11:34:26;;;;;;;7.10;2.43;;;23.80;16.10;;;;;;5048679;28;20488;-72
2023/05/30 11:37:12;;;;;;;7.93;3.13;;;23.90;18.10;;;;;;5041081;28;20447;-71
2023/05/30 11:39:58;;;;;;;7.63;3.23;;;24.00;18.20;;;;;;5044921;28;20469;-72
2023/05/30 11:42:43;;;;;;;11.40;3.70;;;24.10;14.60;;;;;;5049312;28;20446;-71
2023/05/30 11:45:30;;;;;;;5.57;2.57;;;24.00;15.00;;;;;;5045549;28;20439;-74
2023/05/30 11:48:18;;;;;;;5.23;2.93;;;24.00;15.50;;;;;;5044517;28;20522;-72
2023/05/30 11:51:06;;;;;;;12.30;3.63;;;24.00;16.20;;;;;;5046528;28;20468;-71
2023/05/30 11:53:51;;;;;;;6.40;2.10;;;24.10;13.60;;;;;;5050260;28;20452;-71
2023/05/30 11:56:37;;;;;;;5.73;2.50;;;24.20;14.40;;;;;;5046017;28;20961;-71
2023/05/30 11:59:25;;;;;;;12.87;2.77;;;24.30;13.90;;;;;;5048177;28;20546;-71
2023/05/30 12:02:11;;;;;;;8.63;3.60;;;24.20;14.80;;;;;;5047692;28;20456;-71
2023/05/30 12:05:02;;;;;;;14.27;3.00;;;24.20;13.80;;;;;;5054300;28;20489;-71
2023/05/30 12:07:50;;;;;;;6.73;2.93;;;24.30;15.60;;;;;;5047523;28;20440;-71
2023/05/30 12:10:35;;;;;;;4.90;2.40;;;24.40;16.00;;;;;;5046737;28;20512;-71
2023/05/30 12:13:21;;;;;;;6.03;2.67;;;24.60;16.60;;;;;;5051281;28;20926;-71
2023/05/30 12:16:07;;;;;;;17.53;2.80;;;24.70;15.90;;;;;;5040856;28;20451;-74
2023/05/30 12:18:53;;;;;;;6.60;3.03;;;24.80;14.70;;;;;;5052379;28;20467;-72
2023/05/30 12:21:42;;;;;;;8.37;3.00;;;24.90;14.60;;;;;;5043373;28;20630;-71
2023/05/30 12:24:28;;;;;;;7.70;2.70;;;25.00;13.50;;;;;;5046246;28;20445;-71
2023/05/30 12:27:17;;;;;;;6.40;3.00;;;25.10;13.80;;;;;;5049303;28;20492;-73
2023/05/30 12:30:12;;;;;;;9.10;2.70;;;25.10;12.50;;;;;;5047084;28;20881;-71
2023/05/30 12:32:58;;;;;;;11.10;3.00;;;25.10;15.30;;;;;;5050443;28;21023;-71
2023/05/30 12:35:44;;;;;;;7.90;3.00;;;25.00;12.70;;;;;;5043787;28;20452;-72
2023/05/30 12:38:32;;;;;;;7.20;2.90;;;25.10;13.20;;;;;;5054614;28;20543;-72
2023/05/30 12:41:27;;;;;;;7.47;3.20;;;25.20;13.10;;;;;;5050207;28;20467;-71
2023/05/30 12:44:20;;;;;;;7.00;2.77;;;25.20;12.60;;;;;;5053065;28;21154;-72
2023/05/30 12:47:06;;;;;;;7.37;2.70;;;25.30;13.30;;;;;;5044711;28;20478;-75
2023/05/30 12:49:51;;;;;;;11.50;3.13;;;25.40;13.30;;;;;;5054169;28;20447;-71
2023/05/30 12:52:37;;;;;;;6.13;2.83;;;25.50;13.40;;;;;;5048792;28;20440;-71
2023/05/30 12:55:24;;;;;;;8.40;3.20;;;25.60;10.70;;;;;;5039888;28;20451;-72
2023/05/30 12:58:10;;;;;;;7.30;3.23;;;25.50;12.40;;;;;;5048542;28;20447;-71
2023/05/30 13:00:56;;;;;;;8.10;3.10;;;25.50;11.50;;;;;;5050412;28;20471;-71
2023/05/30 13:03:42;;;;;;;5.87;2.83;;;25.60;11.40;;;;;;5050845;28;20468;-71
2023/05/30 13:06:27;;;;;;;7.13;3.00;;;25.70;10.80;;;;;;5047961;28;20466;-71
2023/05/30 13:09:13;;;;;;;5.57;2.40;;;25.80;12.10;;;;;;5043602;28;20957;-73
2023/05/30 13:12:00;;;;;;;8.50;3.23;;;26.00;12.80;;;;;;5052906;28;20773;-71
2023/05/30 13:14:47;;;;;;;7.87;3.10;;;26.10;9.90;;;;;;5052293;28;20452;-74
2023/05/30 13:17:32;;;;;;;17.03;3.67;;;26.20;11.40;;;;;;5047388;28;20520;-71
2023/05/30 13:20:18;;;;;;;6.77;3.37;;;26.40;10.40;;;;;;5052398;28;20593;-71
2023/05/30 13:23:03;;;;;;;9.60;2.90;;;26.40;10.30;;;;;;5055306;28;20440;-71
2023/05/30 13:25:49;;;;;;;4.47;2.47;;;26.30;11.00;;;;;;5043156;28;20810;-71
2023/05/30 13:28:36;;;;;;;6.70;2.63;;;26.30;11.10;;;;;;5044981;28;20463;-72
2023/05/30 13:31:21;;;;;;;11.47;2.80;;;26.50;11.30;;;;;;5045675;28;20467;-72
2023/05/30 13:34:07;;;;;;;6.37;2.30;;;26.60;9.60;;;;;;5045130;28;20468;-70
2023/05/30 13:36:53;;;;;;;5.23;2.20;;;26.70;9.10;;;;;;5044905;28;20444;-71
2023/05/30 13:39:38;;;;;;;7.50;3.37;;;26.80;8.90;;;;;;5044754;28;20640;-70
2023/05/30 13:42:24;;;;;;;9.40;2.50;;;26.80;9.30;;;;;;5039503;28;20583;-70
2023/05/30 13:45:11;;;;;;;5.97;2.50;;;26.80;8.10;;;;;;5038104;28;20488;-71
2023/05/30 13:47:56;;;;;;;4.87;2.43;;;26.80;8.30;;;;;;5050423;28;20447;-71
2023/05/30 13:50:43;;;;;;;10.50;2.97;;;27.00;8.30;;;;;;5052410;28;20459;-75
2023/05/30 13:53:28;;;;;;;5.37;2.70;;;26.90;9.30;;;;;;5049053;28;20483;-72
2023/05/30 13:56:14;;;;;;;8.03;3.13;;;27.00;8.30;;;;;;5044782;28;20522;-71
2023/05/30 13:59:00;;;;;;;8.03;3.43;;;27.00;9.20;;;;;;5058444;28;20482;-72
2023/05/30 14:01:48;;;;;;;5.47;2.83;;;27.10;7.10;;;;;;5049352;28;20472;-71
2023/05/30 14:04:33;;;;;;;8.17;3.40;;;27.20;5.30;;;;;;5037959;28;20505;-75
2023/05/30 14:07:18;;;;;;;6.53;3.07;;;27.20;5.40;;;;;;5041038;28;21164;-71
2023/05/30 14:10:05;;;;;;;9.00;3.40;;;27.10;7.20;;;;;;5045720;28;20472;-72
2023/05/30 14:12:51;;;;;;;5.20;2.40;;;27.10;6.20;;;;;;5047550;28;20440;-72
2023/05/30 14:15:36;;;;;;;4.40;2.40;;;27.00;6.50;;;;;;5040288;28;20965;-72
2023/05/30 14:18:23;;;;;;;9.43;2.33;;;27.00;6.10;;;;;;5041494;28;20823;-71
2023/05/30 14:21:08;;;;;;;7.30;2.47;;;27.10;8.30;;;;;;5050971;28;20505;-72
2023/05/30 14:23:54;;;;;;;9.03;2.53;;;27.20;8.40;;;;;;5043061;28;20432;-76